Главная страница
METAR-TAF:

METAR-TAF

Аэропорты :

Одесса, Украина

широта: 46-26N, долгота: 030-46E, высота над уровнем моря: 42 м

Текущие метеонаблюдения

Эта сводка был подготовлена 34 минут назад, в 13:00 UTC
Ветер 14 Узел от южный
Температура 30°C
Влажность 38%
Давление 1014 hPa
Видимость 10 км и более
Нет облачности ниже 1500 м, и нет кучево-дождевой облачности

METAR: UKOO 141300Z 17007MPS CAVOK 30/14 Q1014 R16/090060 NOSIG

Время: 16:34 (13:34 UTC)

Прогноз

Эта сводка был подготовлена 2 часа и 30 минут назад, в 11:04 UTC
Прогноз действительный с 14-го 12 UTC до 15-го 12 UTC
Ветер 10 Узел от южный с порывами до 19 Узел
Видимость 10 км и более
Отдельные облака на высоте 3000 фута
изменения
С 14-го 17 UTC до 14-го 18 UTC
Ветер 6 Узел от северно-северо-западный
изменения
С 15-го 08 UTC до 15-го 09 UTC
Ветер 6 Узел от юго-юго-восточный

TAF: UKOO 141104Z 1412/1512 18005G10MPS 9999 SCT030 TX31/1412Z TN17/1502Z BECMG 1417/1418 33003MPS BECMG 1508/1509 16003MPS

Метеонаблюдения и прогнозы для более 4000 аэропортов (сводки METAR и TAF).

Имеющиеся станции представлены на карте желтыми и красными точками.

Чтобы увидеть название станции, наведите на нее мышь.

Затем щелкните, чтобы увидеть метеонаблюдения и метеопрогнозы.

Управление картой: чтобы увеличить масштаб, щелкните зеленые кнопки с черным крестиком; чтобы уменьшить масштаб, щелкните зеленую кнопку с тире; для просмотра соседних карт щелкайте зеленые стрелки.


METAR-TAF: